createdAt,value
2018-02-19T00:00:46.194Z,0.5
2018-02-19T00:01:46.791Z,0.48
2018-02-19T00:02:48.421Z,0.5
2018-02-19T00:03:49.519Z,0.53
2018-02-19T00:04:50.820Z,0.53
2018-02-19T00:05:51.800Z,0.44
2018-02-19T00:06:52.501Z,0.44
2018-02-19T00:07:53.115Z,0.54
2018-02-19T00:08:54.205Z,0.5
2018-02-19T00:09:56.530Z,0.54
2018-02-19T00:10:57.908Z,0.47
2018-02-19T00:11:58.465Z,0.53
2018-02-19T00:12:57.799Z,0.44
2018-02-19T00:13:58.929Z,0.5
2018-02-19T00:15:00.475Z,0.5
2018-02-19T00:16:01.857Z,0.5
2018-02-19T00:17:02.555Z,0.5
2018-02-19T00:18:03.183Z,0.45
2018-02-19T00:19:06.300Z,0.51
2018-02-19T00:20:05.913Z,0.48
2018-02-19T00:21:06.667Z,0.54
2018-02-19T00:22:07.239Z,0.48
2018-02-19T00:23:09.150Z,0.48
2018-02-19T00:24:10.637Z,0.48
2018-02-19T00:25:10.858Z,0.44
2018-02-19T00:26:11.818Z,0.53
2018-02-19T00:27:12.233Z,0.5
2018-02-19T00:28:15.316Z,0.44
2018-02-19T00:29:15.202Z,0.5
2018-02-19T00:30:14.877Z,0.45
2018-02-19T00:31:17.681Z,0.47
2018-02-19T00:32:16.952Z,0.54
2018-02-19T00:33:18.286Z,0.51
2018-02-19T00:34:18.608Z,0.54
2018-02-19T00:35:20.925Z,0.35
2018-02-19T00:36:21.597Z,0.32
2018-02-19T00:37:22.786Z,0.43
2018-02-19T00:38:23.233Z,0.34
2018-02-19T00:39:25.488Z,0.41
2018-02-19T00:40:25.895Z,0.43
2018-02-19T00:41:26.556Z,0.37
2018-02-19T00:42:28.675Z,0.34
2018-02-19T00:43:29.332Z,0.47
2018-02-19T00:44:30.108Z,0.48
2018-02-19T00:45:30.045Z,0.34
2018-02-19T00:46:31.696Z,0.32
2018-02-19T00:47:33.417Z,0.32
2018-02-19T00:48:33.767Z,0.32
2018-02-19T00:49:33.409Z,0.29
2018-02-19T00:50:35.172Z,0.35
2018-02-19T00:51:36.540Z,0.26
2018-02-19T00:52:37.063Z,0.43
2018-02-19T00:53:38.701Z,0.43
2018-02-19T00:54:39.687Z,0.43
2018-02-19T00:55:40.083Z,0.43
2018-02-19T00:56:41.453Z,0.38
2018-02-19T00:57:42.082Z,0.43
2018-02-19T00:58:43.426Z,0.43
2018-02-19T00:59:43.749Z,0.32
2018-02-19T01:00:45.481Z,0.43
2018-02-19T01:01:46.900Z,0.37
2018-02-19T01:02:46.717Z,0.41
2018-02-19T01:03:48.466Z,0.43
2018-02-19T01:04:48.923Z,0.35
2018-02-19T01:05:51.399Z,0.38
2018-02-19T01:06:53.099Z,0.38
2018-02-19T01:07:51.826Z,0.43
2018-02-19T01:08:53.813Z,0.43
2018-02-19T01:09:53.479Z,0.47
2018-02-19T01:10:54.570Z,0.47
2018-02-19T01:11:56.953Z,0.48
2018-02-19T01:12:57.159Z,0.38
2018-02-19T01:14:00.432Z,0.41
2018-02-19T01:14:59.891Z,0.38
2018-02-19T01:16:00.793Z,0.43
2018-02-19T01:17:02.531Z,0.45
2018-02-19T01:18:01.799Z,0.41
2018-02-19T01:19:03.759Z,0.4
2018-02-19T01:20:03.833Z,0.47
2018-02-19T01:21:06.411Z,0.5
2018-02-19T01:22:06.127Z,0.47
2018-02-19T01:23:07.361Z,0.54
2018-02-19T01:24:07.511Z,0.4
2018-02-19T01:25:08.461Z,0.45
2018-02-19T01:26:09.459Z,0.5
2018-02-19T01:27:10.872Z,0.4
2018-02-19T01:28:14.190Z,0.38
2018-02-19T01:29:13.853Z,0.47
2018-02-19T01:30:14.344Z,0.38
2018-02-19T01:31:15.974Z,0.43
2018-02-19T01:32:16.317Z,0.43
2018-02-19T01:33:17.410Z,0.43
2018-02-19T01:34:18.947Z,0.43
2018-02-19T01:35:19.347Z,0.38
2018-02-19T01:36:19.988Z,0.43
2018-02-19T01:37:20.961Z,0.43
2018-02-19T01:38:21.575Z,0.41
2018-02-19T01:39:23.098Z,0.43
2018-02-19T01:40:23.623Z,0.38
2018-02-19T01:41:25.163Z,0.38
2018-02-19T01:42:27.025Z,0.38
2018-02-19T01:43:27.899Z,0.45
2018-02-19T01:44:28.738Z,0.43
2018-02-19T01:45:29.720Z,0.45
2018-02-19T01:46:29.946Z,0.47
2018-02-19T01:47:31.871Z,0.47
2018-02-19T01:48:32.512Z,0.48
2018-02-19T01:49:32.603Z,0.45
2018-02-19T01:50:35.364Z,0.45
2018-02-19T01:51:34.987Z,0.4
2018-02-19T01:52:36.037Z,0.5
2018-02-19T01:53:36.661Z,0.5
2018-02-19T01:54:37.559Z,0.43
2018-02-19T01:55:38.298Z,0.47
2018-02-19T01:56:39.960Z,0.43
2018-02-19T01:57:40.975Z,0.38
2018-02-19T01:58:42.645Z,0.43
2018-02-19T01:59:43.383Z,0.43
2018-02-19T02:00:44.649Z,0.38
2018-02-19T02:01:45.787Z,0.4
2018-02-19T02:02:47.057Z,0.38
2018-02-19T02:03:47.072Z,0.43
2018-02-19T02:04:47.677Z,0.35
2018-02-19T02:05:49.439Z,0.35
2018-02-19T02:06:49.671Z,0.38
2018-02-19T02:07:52.329Z,0.47
2018-02-19T02:08:52.329Z,0.47
2018-02-19T02:09:52.470Z,0.35
2018-02-19T02:10:54.712Z,0.38
2018-02-19T02:11:54.588Z,0.47
2018-02-19T02:12:56.489Z,0.38
2018-02-19T02:13:57.840Z,0.43
2018-02-19T02:14:58.452Z,0.38
2018-02-19T02:16:00.009Z,0.48
2018-02-19T02:17:01.601Z,0.48
2018-02-19T02:18:01.211Z,0.48
2018-02-19T02:19:03.912Z,0.44
2018-02-19T02:20:04.638Z,0.45
2018-02-19T02:21:04.034Z,0.53
2018-02-19T02:22:05.077Z,0.44
2018-02-19T02:23:07.132Z,0.5
2018-02-19T02:24:08.243Z,0.54
2018-02-19T02:25:09.087Z,0.5
2018-02-19T02:26:09.938Z,0.5
2018-02-19T02:27:09.769Z,0.45
2018-02-19T02:28:11.903Z,0.44
2018-02-19T02:29:13.775Z,0.38
2018-02-19T02:30:12.965Z,0.38
2018-02-19T02:31:14.007Z,0.47
2018-02-19T02:32:14.393Z,0.54
2018-02-19T02:33:16.616Z,0.54
2018-02-19T02:34:17.014Z,0.53
2018-02-19T02:35:18.611Z,0.48
2018-02-19T02:36:20.221Z,0.44
2018-02-19T02:37:20.060Z,0.45
2018-02-19T02:38:21.933Z,0.54
2018-02-19T02:39:21.691Z,0.44
2018-02-19T02:40:24.072Z,0.4
2018-02-19T02:41:23.909Z,0.47
2018-02-19T02:42:26.250Z,0.43
2018-02-19T02:43:27.227Z,0.38
2018-02-19T02:44:28.884Z,0.38
2018-02-19T02:45:28.281Z,0.38
2018-02-19T02:46:30.628Z,0.48
2018-02-19T02:47:30.973Z,0.4
2018-02-19T02:48:31.639Z,0.44
2018-02-19T02:49:33.299Z,0.53
2018-02-19T02:50:35.364Z,0.5
2018-02-19T02:51:34.671Z,0.44
2018-02-19T02:52:35.457Z,0.38
2018-02-19T02:53:36.648Z,0.4
2018-02-19T02:54:37.252Z,0.4
2018-02-19T02:55:38.708Z,0.45
2018-02-19T02:56:39.231Z,0.5
2018-02-19T02:57:40.346Z,0.45
2018-02-19T02:58:41.936Z,0.48
2018-02-19T02:59:42.985Z,0.32
2018-02-19T03:00:44.500Z,0.43
2018-02-19T03:01:44.899Z,0.38
2018-02-19T03:02:46.461Z,0.43
2018-02-19T03:03:46.942Z,0.38
2018-02-19T03:04:46.877Z,0.38
2018-02-19T03:05:48.511Z,0.38
2018-02-19T03:06:49.003Z,0.37
2018-02-19T03:07:51.301Z,0.38
2018-02-19T03:08:51.070Z,0.38
2018-02-19T03:09:52.603Z,0.45
2018-02-19T03:10:53.813Z,0.35
2018-02-19T03:11:54.341Z,0.34
2018-02-19T03:12:56.589Z,0.32
2018-02-19T03:13:57.906Z,0.47
2018-02-19T03:14:58.863Z,0.48
2018-02-19T03:15:59.254Z,0.31
2018-02-19T03:17:00.249Z,0.43
2018-02-19T03:18:00.945Z,0.41
2018-02-19T03:19:01.065Z,0.32
2018-02-19T03:20:02.787Z,0.35
2018-02-19T03:21:03.824Z,0.43
2018-02-19T03:22:03.551Z,0.43
2018-02-19T03:23:05.083Z,0.38
2018-02-19T03:24:06.745Z,0.38
2018-02-19T03:25:07.391Z,0.38
2018-02-19T03:26:09.122Z,0.4
2018-02-19T03:27:10.816Z,0.32
2018-02-19T03:28:09.766Z,0.43
2018-02-19T03:29:11.305Z,0.4
2018-02-19T03:30:12.390Z,0.38
2018-02-19T03:31:13.775Z,0.38
2018-02-19T03:32:14.698Z,0.43
2018-02-19T03:33:15.138Z,0.38
2018-02-19T03:34:17.113Z,0.4
2018-02-19T03:35:18.331Z,0.4
2018-02-19T03:36:18.036Z,0.38
2018-02-19T03:37:19.022Z,0.37
2018-02-19T03:38:20.577Z,0.38
2018-02-19T03:39:20.931Z,0.38
2018-02-19T03:40:21.652Z,0.43
2018-02-19T03:41:24.711Z,0.47
2018-02-19T03:42:24.374Z,0.47
2018-02-19T03:43:25.777Z,0.45
2018-02-19T03:44:25.771Z,0.48
2018-02-19T03:45:27.031Z,0.45
2018-02-19T03:46:28.316Z,0.48
2018-02-19T03:47:28.390Z,0.47
2018-02-19T03:48:31.167Z,0.44
2018-02-19T03:49:31.393Z,0.43
2018-02-19T03:50:32.043Z,0.43
2018-02-19T03:51:34.226Z,0.47
2018-02-19T03:52:34.056Z,0.4
2018-02-19T03:53:35.426Z,0.43
2018-02-19T03:54:37.190Z,0.4
2018-02-19T03:55:37.811Z,0.5
2018-02-19T03:56:38.839Z,0.41
2018-02-19T03:57:39.618Z,0.38
2018-02-19T03:58:40.139Z,0.43
2018-02-19T03:59:41.398Z,0.4
2018-02-19T04:00:41.372Z,0.38
2018-02-19T04:01:43.147Z,0.38
2018-02-19T04:02:44.108Z,0.41
2018-02-19T04:03:47.205Z,0.43
2018-02-19T04:04:46.645Z,0.47
2018-02-19T04:05:46.977Z,0.43
2018-02-19T04:06:48.810Z,0.4
2018-02-19T04:07:49.646Z,0.45
2018-02-19T04:08:49.657Z,0.47
2018-02-19T04:09:51.027Z,0.4
2018-02-19T04:10:51.867Z,0.48
2018-02-19T04:11:52.681Z,0.5
2018-02-19T04:12:54.035Z,0.53
2018-02-19T04:13:55.074Z,0.51
2018-02-19T04:14:56.431Z,0.54
2018-02-19T04:15:57.667Z,0.47
2018-02-19T04:16:57.973Z,0.43
2018-02-19T04:17:59.035Z,0.45
2018-02-19T04:19:01.017Z,0.48
2018-02-19T04:20:02.097Z,0.41
2018-02-19T04:21:02.607Z,0.47
2018-02-19T04:22:03.669Z,0.51
2018-02-19T04:23:04.993Z,0.51
2018-02-19T04:24:06.099Z,0.48
2018-02-19T04:25:08.380Z,0.48
2018-02-19T04:26:07.933Z,0.5
2018-02-19T04:27:08.264Z,0.5
2018-02-19T04:28:09.359Z,0.44
2018-02-19T04:29:09.971Z,0.48
2018-02-19T04:30:12.022Z,0.54
2018-02-19T04:31:11.409Z,0.51
2018-02-19T04:32:13.009Z,0.5
2018-02-19T04:33:13.948Z,0.5
2018-02-19T04:34:15.585Z,0.66
2018-02-19T04:35:15.891Z,0.54
2018-02-19T04:36:17.264Z,0.54
2018-02-19T04:37:18.724Z,0.47
2018-02-19T04:38:19.978Z,0.54
2018-02-19T04:39:21.864Z,0.45
2018-02-19T04:40:22.265Z,0.54
2018-02-19T04:41:22.676Z,0.5
2018-02-19T04:42:24.853Z,0.57
2018-02-19T04:43:24.412Z,0.41
2018-02-19T04:44:25.339Z,0.48
2018-02-19T04:45:26.641Z,0.41
2018-02-19T04:46:27.352Z,0.43
2018-02-19T04:47:27.545Z,0.47
2018-02-19T04:48:28.666Z,0.43
2018-02-19T04:49:30.005Z,0.47
2018-02-19T04:50:31.340Z,0.47
2018-02-19T04:51:31.727Z,0.41
2018-02-19T04:52:33.506Z,0.41
2018-02-19T04:53:35.302Z,0.43
2018-02-19T04:54:35.326Z,0.48
2018-02-19T04:55:36.530Z,0.4
2018-02-19T04:56:38.968Z,0.38
2018-02-19T04:57:40.107Z,0.4
2018-02-19T04:58:42.254Z,0.35
2018-02-19T04:59:41.166Z,0.41
2018-02-19T05:00:41.064Z,0.34
2018-02-19T05:01:42.487Z,0.43
2018-02-19T05:02:42.963Z,0.48
2018-02-19T05:03:43.438Z,0.43
2018-02-19T05:04:45.474Z,0.38
2018-02-19T05:05:46.515Z,0.41
2018-02-19T05:06:47.789Z,0.43
2018-02-19T05:07:48.771Z,0.43
2018-02-19T05:08:49.720Z,0.32
2018-02-19T05:09:51.236Z,0.38
2018-02-19T05:10:53.654Z,0.48
2018-02-19T05:11:53.759Z,0.4
2018-02-19T05:12:54.159Z,0.45
2018-02-19T05:13:55.279Z,0.43
2018-02-19T05:14:55.017Z,0.35
2018-02-19T05:15:56.918Z,0.41
2018-02-19T05:16:57.515Z,0.34
2018-02-19T05:17:58.330Z,0.38
2018-02-19T05:18:58.720Z,0.43
2018-02-19T05:19:59.537Z,0.43
2018-02-19T05:21:00.943Z,0.38
2018-02-19T05:22:01.511Z,0.38
2018-02-19T05:23:03.320Z,0.53
2018-02-19T05:24:03.831Z,0.48
2018-02-19T05:25:05.260Z,0.51
2018-02-19T05:26:06.635Z,0.53
2018-02-19T05:27:07.901Z,0.53
2018-02-19T05:28:10.012Z,0.48
2018-02-19T05:29:10.549Z,0.41
2018-02-19T05:30:12.057Z,0.54
2018-02-19T05:31:12.079Z,0.54
2018-02-19T05:32:12.223Z,0.5
2018-02-19T05:33:13.566Z,0.44
2018-02-19T05:34:13.812Z,0.44
2018-02-19T05:35:16.228Z,0.47
2018-02-19T05:36:17.124Z,0.5
2018-02-19T05:37:18.939Z,0.48
2018-02-19T05:38:18.134Z,0.5
2018-02-19T05:39:20.008Z,0.5
2018-02-19T05:40:19.639Z,0.45
2018-02-19T05:41:21.949Z,0.43
2018-02-19T05:42:23.064Z,0.54
2018-02-19T05:43:24.249Z,0.53
2018-02-19T05:44:24.631Z,0.51
2018-02-19T05:45:25.937Z,0.48
2018-02-19T05:46:28.132Z,0.48
2018-02-19T05:47:27.500Z,0.47
2018-02-19T05:48:31.668Z,0.54
2018-02-19T05:49:28.469Z,0.48
2018-02-19T05:50:29.374Z,0.54
2018-02-19T05:51:30.723Z,0.54
2018-02-19T05:52:31.275Z,0.54
2018-02-19T05:53:33.644Z,0.44
2018-02-19T05:54:33.524Z,0.48
2018-02-19T05:55:34.328Z,0.51
2018-02-19T05:56:35.763Z,0.48
2018-02-19T05:57:37.098Z,0.48
2018-02-19T05:58:38.215Z,0.53
2018-02-19T05:59:41.588Z,0.53
2018-02-19T06:00:41.272Z,0.29
2018-02-19T06:01:41.513Z,0.18
2018-02-19T06:02:42.289Z,0.21
2018-02-19T06:03:43.692Z,0.21
2018-02-19T06:04:44.902Z,0.31
2018-02-19T06:05:45.539Z,0.31
2018-02-19T06:06:47.319Z,0.26
2018-02-19T06:07:47.639Z,0.29
2018-02-19T06:08:48.031Z,0.22
2018-02-19T06:09:49.762Z,0.29
2018-02-19T06:10:50.887Z,0.22
2018-02-19T06:11:50.790Z,0.31
2018-02-19T06:12:52.739Z,0.35
2018-02-19T06:13:53.662Z,0.31
2018-02-19T06:14:54.814Z,0.31
2018-02-19T06:15:55.187Z,0.35
2018-02-19T06:16:56.700Z,0.22
2018-02-19T06:17:57.247Z,0.22
2018-02-19T06:18:58.103Z,0.23
2018-02-19T06:19:58.992Z,0.31
2018-02-19T06:21:00.511Z,0.29
2018-02-19T06:22:01.557Z,0.37
2018-02-19T06:23:02.646Z,0.31
2018-02-19T06:24:03.171Z,0.37
2018-02-19T06:25:04.656Z,0.31
2018-02-19T06:26:05.430Z,0.35
2018-02-19T06:27:06.943Z,0.29
2018-02-19T06:28:07.763Z,0.15
2018-02-19T06:29:09.045Z,0.22
2018-02-19T06:30:09.472Z,0.16
2018-02-19T06:31:09.774Z,0.21
2018-02-19T06:32:11.093Z,0.21
2018-02-19T06:33:13.378Z,0.18
2018-02-19T06:34:12.516Z,0.19
2018-02-19T06:35:14.692Z,0.21
2018-02-19T06:36:15.217Z,0.31
2018-02-19T06:37:17.179Z,0.29
2018-02-19T06:38:16.415Z,0.25
2018-02-19T06:39:18.739Z,0.22
2018-02-19T06:40:19.992Z,0.23
2018-02-19T06:41:20.931Z,0.31
2018-02-19T06:42:22.839Z,0.28
2018-02-19T06:43:22.899Z,0.43
2018-02-19T06:44:22.691Z,0.41
2018-02-19T06:45:23.753Z,0.41
2018-02-19T06:46:25.462Z,0.43
2018-02-19T06:47:27.206Z,0.5
2018-02-19T06:48:26.892Z,0.4
2018-02-19T06:49:27.631Z,0.5
2018-02-19T06:50:29.059Z,0.5
2018-02-19T06:51:30.799Z,0.53
2018-02-19T06:52:30.938Z,0.38
2018-02-19T06:53:31.367Z,0.47
2018-02-19T06:54:34.720Z,0.5
2018-02-19T06:55:34.741Z,0.57
2018-02-19T06:56:36.454Z,0.48
2018-02-19T06:57:36.381Z,0.45
2018-02-19T06:58:37.987Z,0.38
2018-02-19T06:59:39.505Z,0.47
2018-02-19T07:00:39.138Z,0.45
2018-02-19T07:01:40.730Z,0.47
2018-02-19T07:02:42.358Z,0.38
2018-02-19T07:03:41.891Z,0.38
2018-02-19T07:04:43.071Z,0.43
2018-02-19T07:05:44.540Z,0.4
2018-02-19T07:06:45.618Z,0.45
2018-02-19T07:07:46.232Z,0.5
2018-02-19T07:08:48.415Z,0.38
2018-02-19T07:09:48.928Z,0.45
2018-02-19T07:10:50.291Z,0.48
2018-02-19T07:11:50.613Z,0.45
2018-02-19T07:12:52.496Z,0.45
2018-02-19T07:13:52.917Z,0.48
2018-02-19T07:14:54.108Z,0.43
2018-02-19T07:15:56.119Z,0.35
2018-02-19T07:16:55.420Z,0.29
2018-02-19T07:17:56.819Z,0.29
2018-02-19T07:18:59.279Z,0.43
2018-02-19T07:20:01.067Z,0.41
2018-02-19T07:21:01.667Z,0.38
2018-02-19T07:22:02.113Z,0.44
2018-02-19T07:23:03.598Z,0.41
2018-02-19T07:24:03.519Z,0.4
2018-02-19T07:25:04.119Z,0.38
2018-02-19T07:26:04.851Z,0.47
2018-02-19T07:27:07.622Z,0.43
2018-02-19T07:28:09.206Z,0.38
2018-02-19T07:29:09.247Z,0.38
2018-02-19T07:30:09.085Z,0.38
2018-02-19T07:31:13.247Z,0.41
2018-02-19T07:32:11.219Z,0.38
2018-02-19T07:33:12.623Z,0.4
2018-02-19T07:34:14.819Z,0.44
2018-02-19T07:35:16.326Z,0.48
2018-02-19T07:36:15.683Z,0.38
2018-02-19T07:37:16.413Z,0.38
2018-02-19T07:38:19.364Z,0.43
2018-02-19T07:39:19.352Z,0.38
2018-02-19T07:40:19.946Z,0.45
2018-02-19T07:41:58.287Z,0.47
2018-02-19T07:42:25.419Z,0.48
2018-02-19T07:43:22.684Z,0.4
2018-02-19T07:44:23.231Z,0.44
2018-02-19T07:45:25.111Z,0.44
2018-02-19T07:46:25.202Z,0.47
2018-02-19T07:47:26.663Z,0.48
2018-02-19T07:48:28.861Z,0.47
2018-02-19T07:49:29.792Z,0.54
2018-02-19T07:50:30.243Z,0.5
2018-02-19T07:51:30.472Z,0.38
2018-02-19T07:52:32.362Z,0.53
2018-02-19T07:53:33.213Z,0.38
2018-02-19T07:54:34.037Z,0.38
2018-02-19T07:55:34.151Z,0.43
2018-02-19T07:56:41.699Z,0.38
2018-02-19T07:57:36.118Z,0.43
2018-02-19T07:58:38.566Z,0.35
2018-02-19T07:59:38.103Z,0.41
2018-02-19T08:00:40.496Z,0.38
2018-02-19T08:01:40.138Z,0.38
2018-02-19T08:02:45.328Z,0.44
2018-02-19T08:03:44.195Z,0.4
2018-02-19T08:04:44.490Z,0.38
2018-02-19T08:05:46.335Z,0.43
2018-02-19T08:06:45.654Z,0.48
2018-02-19T08:07:46.297Z,0.45
2018-02-19T08:08:48.934Z,0.38
2018-02-19T08:09:48.371Z,0.38
2018-02-19T08:10:49.171Z,0.43
2018-02-19T08:11:50.761Z,0.48
2018-02-19T08:12:51.181Z,0.44
2018-02-19T08:13:53.128Z,0.43
2018-02-19T08:14:53.663Z,0.37
2018-02-19T08:15:53.820Z,0.38
2018-02-19T08:16:56.426Z,0.43
2018-02-19T08:17:56.544Z,0.31
2018-02-19T08:18:58.973Z,0.35
2018-02-19T08:19:59.149Z,0.34
2018-02-19T08:20:59.496Z,0.31
2018-02-19T08:22:00.573Z,0.34
2018-02-19T08:23:02.847Z,0.31
2018-02-19T08:24:05.451Z,0.32
2018-02-19T08:25:05.497Z,0.26
2018-02-19T08:26:06.986Z,0.31
2018-02-19T08:27:06.845Z,0.34
2018-02-19T08:28:08.545Z,0.35
2018-02-19T08:29:10.192Z,0.31
2018-02-19T08:30:08.962Z,0.37
2018-02-19T08:31:09.977Z,0.31
2018-02-19T08:32:11.882Z,0.29
2018-02-19T08:33:12.246Z,0.26
2018-02-19T08:34:14.197Z,0.32
2018-02-19T08:35:13.521Z,0.31
2018-02-19T08:36:15.268Z,0.38
2018-02-19T08:37:17.969Z,0.34
2018-02-19T08:38:17.006Z,0.38
2018-02-19T08:39:19.322Z,0.32
2018-02-19T08:40:20.946Z,0.32
2018-02-19T08:41:21.170Z,0.41
2018-02-19T08:42:22.132Z,0.43
2018-02-19T08:43:23.533Z,0.34
2018-02-19T08:44:24.190Z,0.28
2018-02-19T08:45:24.012Z,0.37
2018-02-19T08:46:25.177Z,0.38
2018-02-19T08:47:26.391Z,0.4
2018-02-19T08:48:27.498Z,0.37
2018-02-19T08:49:28.621Z,0.31
2018-02-19T08:50:29.349Z,0.31
2018-02-19T08:51:30.272Z,0.37
2018-02-19T08:52:30.583Z,0.31
2018-02-19T08:53:31.633Z,0.35
2018-02-19T08:54:34.529Z,0.32
2018-02-19T08:55:35.624Z,0.41
2018-02-19T08:56:35.519Z,0.26
2018-02-19T08:57:37.789Z,0.31
2018-02-19T08:58:37.874Z,0.35
2018-02-19T08:59:39.865Z,0.34
2018-02-19T09:00:38.959Z,0.26
2018-02-19T09:01:40.141Z,0.28
2018-02-19T09:02:42.235Z,0.31
2018-02-19T09:03:42.729Z,0.31
2018-02-19T09:04:44.239Z,0.38
2018-02-19T09:05:44.042Z,0.21
2018-02-19T09:06:46.702Z,0.23
2018-02-19T09:07:45.558Z,0.29
2018-02-19T09:08:46.771Z,0.34
2018-02-19T09:09:47.913Z,0.22
2018-02-19T09:10:48.639Z,0.26
2018-02-19T09:11:50.225Z,0.31
2018-02-19T09:12:52.008Z,0.31
2018-02-19T09:13:52.455Z,0.28
2018-02-19T09:14:54.985Z,0.29
2018-02-19T09:15:54.987Z,0.31
2018-02-19T09:16:55.469Z,0.34
2018-02-19T09:17:56.913Z,0.28
2018-02-19T09:18:58.172Z,0.34
2018-02-19T09:19:58.689Z,0.43
2018-02-19T09:21:01.580Z,0.26
2018-02-19T09:22:00.674Z,0.29
2018-02-19T09:23:01.807Z,0.31
2018-02-19T09:24:03.417Z,0.51
2018-02-19T09:25:04.095Z,0.43
2018-02-19T09:26:04.660Z,0.35
2018-02-19T09:27:05.660Z,0.34
2018-02-19T09:28:06.182Z,0.32
2018-02-19T09:29:07.882Z,0.38
2018-02-19T09:30:10.064Z,0.38
2018-02-19T09:31:10.877Z,0.44
2018-02-19T09:32:11.760Z,0.48
2018-02-19T09:33:11.777Z,0.38
2018-02-19T09:34:12.472Z,0.38
2018-02-19T09:35:15.635Z,0.38
2018-02-19T09:36:14.646Z,0.28
2018-02-19T09:37:16.983Z,0.35
2018-02-19T09:38:17.523Z,0.38
2018-02-19T09:39:18.844Z,0.38
2018-02-19T09:40:20.652Z,0.41
2018-02-19T09:41:20.604Z,0.26
2018-02-19T09:42:22.207Z,0.26
2018-02-19T09:43:23.872Z,0.41
2018-02-19T09:44:24.910Z,0.31
2018-02-19T09:45:24.675Z,0.38
2018-02-19T09:46:24.967Z,0.26
2018-02-19T09:47:26.300Z,0.34
2018-02-19T09:48:27.038Z,0.28
2018-02-19T09:49:28.645Z,0.45
2018-02-19T09:50:31.120Z,0.37
2018-02-19T09:51:30.043Z,0.37
2018-02-19T09:52:31.337Z,0.32
2018-02-19T09:53:32.312Z,0.45
2018-02-19T09:54:34.572Z,0.45
2018-02-19T09:55:34.439Z,0.38
2018-02-19T09:56:36.563Z,0.43
2018-02-19T09:57:36.829Z,0.43
2018-02-19T09:58:38.650Z,0.38
2018-02-19T09:59:39.438Z,0.38
2018-02-19T10:00:39.719Z,0.38
2018-02-19T10:01:42.302Z,0.43
2018-02-19T10:02:41.177Z,0.51
2018-02-19T10:03:43.412Z,0.47
2018-02-19T10:04:42.932Z,0.5
2018-02-19T10:05:46.728Z,0.54
2018-02-19T10:06:46.475Z,0.53
2018-02-19T10:07:46.536Z,0.62
2018-02-19T10:08:47.511Z,0.43
2018-02-19T10:09:47.966Z,0.47
2018-02-19T10:10:51.724Z,0.45
2018-02-19T10:11:50.861Z,0.45
2018-02-19T10:12:51.867Z,0.44
2018-02-19T10:13:52.875Z,0.45
2018-02-19T10:14:54.869Z,0.43
2018-02-19T10:15:56.633Z,0.37
2018-02-19T10:16:55.740Z,0.43
2018-02-19T10:17:56.913Z,0.32
2018-02-19T10:18:57.242Z,0.34
2018-02-19T10:19:59.027Z,0.29
2018-02-19T10:20:59.867Z,0.29
2018-02-19T10:22:00.983Z,0.35
2018-02-19T10:23:02.215Z,0.26
2018-02-19T10:24:03.825Z,0.35
2018-02-19T10:25:03.695Z,0.34
2018-02-19T10:26:05.313Z,0.28
2018-02-19T10:27:05.653Z,0.32
2018-02-19T10:28:06.951Z,0.43
2018-02-19T10:29:07.870Z,0.43
2018-02-19T10:30:09.584Z,0.37
2018-02-19T10:31:11.685Z,0.38
2018-02-19T10:32:10.944Z,0.38
2018-02-19T10:33:11.810Z,0.32
2018-02-19T10:34:13.587Z,0.43
2018-02-19T10:35:12.948Z,0.43
2018-02-19T10:36:14.367Z,0.35
2018-02-19T10:37:15.811Z,0.34
2018-02-19T10:38:15.688Z,0.45
2018-02-19T10:39:17.035Z,0.31
2018-02-19T10:40:17.449Z,0.25
2018-02-19T10:41:19.748Z,0.4
2018-02-19T10:42:19.452Z,0.25
2018-02-19T10:43:20.463Z,0.32
2018-02-19T10:44:24.869Z,0.5
2018-02-19T10:45:24.458Z,0.31
2018-02-19T10:46:25.460Z,0.28
2018-02-19T10:47:26.102Z,0.31
2018-02-19T10:48:26.161Z,0.35
2018-02-19T10:49:28.019Z,0.38
2018-02-19T10:50:28.433Z,0.47
2018-02-19T10:51:29.702Z,0.47
2018-02-19T10:52:30.435Z,0.32
2018-02-19T10:53:31.329Z,0.35
2018-02-19T10:54:31.333Z,0.32
2018-02-19T10:55:33.134Z,0.47
2018-02-19T10:56:34.383Z,0.48
2018-02-19T10:57:34.808Z,0.43
2018-02-19T10:58:35.971Z,0.32
2018-02-19T10:59:37.683Z,0.43
2018-02-19T11:00:38.427Z,0.44
2018-02-19T11:01:42.686Z,0.44
2018-02-19T11:02:40.032Z,0.38
2018-02-19T11:03:41.034Z,0.38
2018-02-19T11:04:42.006Z,0.38
2018-02-19T11:05:44.440Z,0.47
2018-02-19T11:06:45.465Z,0.38
2018-02-19T11:07:45.962Z,0.47
2018-02-19T11:08:46.154Z,0.47
2018-02-19T11:09:47.152Z,0.48
2018-02-19T11:10:48.705Z,0.4
2018-02-19T11:11:48.798Z,0.48
2018-02-19T11:12:49.587Z,0.44
2018-02-19T11:13:53.582Z,0.48
2018-02-19T11:14:52.939Z,0.53
2018-02-19T11:15:53.970Z,0.45
2018-02-19T11:16:55.040Z,0.45
2018-02-19T11:17:55.622Z,0.38
2018-02-19T11:18:56.763Z,0.38
2018-02-19T11:19:57.232Z,0.48
2018-02-19T11:20:58.503Z,0.47
2018-02-19T11:21:59.679Z,0.44
2018-02-19T11:22:59.909Z,0.54
2018-02-19T11:24:02.133Z,0.5
2018-02-19T11:25:02.156Z,0.54
2018-02-19T11:26:02.499Z,0.54
2018-02-19T11:27:03.873Z,0.53
2018-02-19T11:28:05.905Z,0.5
2018-02-19T11:29:05.667Z,0.5
2018-02-19T11:30:08.595Z,0.5
2018-02-19T11:31:09.418Z,0.44
2018-02-19T11:32:11.083Z,0.48
2018-02-19T11:33:10.302Z,0.5
2018-02-19T11:34:12.309Z,0.54
2018-02-19T11:35:12.719Z,0.5
2018-02-19T11:36:14.453Z,0.5
2018-02-19T11:37:14.750Z,0.5
2018-02-19T11:38:16.845Z,0.5
2018-02-19T11:39:18.221Z,0.59
2018-02-19T11:40:17.749Z,0.47
2018-02-19T11:41:19.049Z,0.44
2018-02-19T11:42:20.328Z,0.5
2018-02-19T11:43:19.725Z,0.53
2018-02-19T11:44:21.415Z,0.45
2018-02-19T11:45:22.106Z,0.45
2018-02-19T11:46:24.358Z,0.48
2018-02-19T11:47:24.164Z,0.44
2018-02-19T11:48:25.583Z,0.44
2018-02-19T11:49:26.057Z,0.4
2018-02-19T11:50:26.667Z,0.44
2018-02-19T11:51:28.585Z,0.48
2018-02-19T11:52:29.410Z,0.54
2018-02-19T11:53:29.829Z,0.54
2018-02-19T11:54:31.589Z,0.48
2018-02-19T11:55:32.273Z,0.4
2018-02-19T11:56:34.376Z,0.38
2018-02-19T11:57:35.455Z,0.47
2018-02-19T11:58:36.737Z,0.48
2018-02-19T11:59:36.426Z,0.45
2018-02-19T12:00:36.980Z,0.38
2018-02-19T12:01:38.326Z,0.34
2018-02-19T12:02:40.329Z,0.34
2018-02-19T12:03:40.322Z,0.51
2018-02-19T12:04:42.139Z,0.47
2018-02-19T12:05:42.126Z,0.47
2018-02-19T12:06:43.092Z,0.38
2018-02-19T12:07:44.973Z,0.45
2018-02-19T12:08:45.820Z,0.38
2018-02-19T12:09:46.688Z,0.38
2018-02-19T12:10:48.246Z,0.45
2018-02-19T12:11:49.861Z,0.4
2018-02-19T12:12:50.861Z,0.45
2018-02-19T12:13:50.358Z,0.38
2018-02-19T12:14:53.929Z,0.43
2018-02-19T12:15:52.494Z,0.41
2018-02-19T12:16:54.458Z,0.48
2018-02-19T12:17:55.082Z,0.44
2018-02-19T12:18:56.185Z,0.44
2018-02-19T12:19:56.407Z,0.47
2018-02-19T12:20:57.482Z,0.38
2018-02-19T12:22:00.067Z,0.43
2018-02-19T12:22:59.198Z,0.4
2018-02-19T12:24:01.025Z,0.45
2018-02-19T12:25:01.744Z,0.41
2018-02-19T12:26:01.495Z,0.4
2018-02-19T12:27:02.480Z,0.43
2018-02-19T12:28:04.262Z,0.45
2018-02-19T12:29:04.766Z,0.47
2018-02-19T12:30:06.887Z,0.44
2018-02-19T12:31:07.729Z,0.41
2018-02-19T12:32:08.847Z,0.41
2018-02-19T12:33:12.271Z,0.44
2018-02-19T12:34:10.579Z,0.5
2018-02-19T12:35:11.246Z,0.4
2018-02-19T12:36:13.131Z,0.45
2018-02-19T12:37:13.332Z,0.47
2018-02-19T12:38:15.632Z,0.47
2018-02-19T12:39:16.146Z,0.5
2018-02-19T12:40:17.267Z,0.48
2018-02-19T12:41:17.905Z,0.54
2018-02-19T12:42:19.696Z,0.48
2018-02-19T12:43:20.135Z,0.44
2018-02-19T12:44:21.203Z,0.48
2018-02-19T12:45:22.008Z,0.48
2018-02-19T12:46:23.173Z,0.45
2018-02-19T12:47:22.784Z,0.45
2018-02-19T12:48:24.759Z,0.4
2018-02-19T12:49:25.940Z,0.38
2018-02-19T12:50:25.778Z,0.47
2018-02-19T12:51:28.549Z,0.45
2018-02-19T12:52:29.381Z,0.54
2018-02-19T12:53:31.088Z,0.45
2018-02-19T12:54:32.318Z,0.38
2018-02-19T12:55:32.335Z,0.38
2018-02-19T12:56:32.493Z,0.38
2018-02-19T12:57:33.685Z,0.51
2018-02-19T12:58:34.843Z,0.4
2018-02-19T12:59:34.916Z,0.48
2018-02-19T13:00:36.566Z,0.38
2018-02-19T13:01:38.052Z,0.45
2018-02-19T13:02:38.400Z,0.38
2018-02-19T13:03:39.939Z,0.45
2018-02-19T13:04:42.288Z,0.47
2018-02-19T13:05:42.280Z,0.48
2018-02-19T13:07:40.001Z,0.38
2018-02-19T13:07:43.273Z,0.53
2018-02-19T13:08:45.665Z,0.48
2018-02-19T13:09:46.824Z,0.45
2018-02-19T13:10:49.840Z,0.45
2018-02-19T13:11:49.502Z,0.32
2018-02-19T13:12:51.945Z,0.38
2018-02-19T13:13:51.430Z,0.47
2018-02-19T13:14:53.023Z,0.4
2018-02-19T13:15:52.648Z,0.5
2018-02-19T13:16:54.580Z,0.38
2018-02-19T13:17:56.425Z,0.43
2018-02-19T13:18:56.294Z,0.41
2018-02-19T13:19:57.493Z,0.35
2018-02-19T13:20:58.084Z,0.38
2018-02-19T13:21:58.414Z,0.43
2018-02-19T13:23:01.349Z,0.38
2018-02-19T13:24:02.129Z,0.47
2018-02-19T13:25:01.186Z,0.43
2018-02-19T13:26:02.993Z,0.35
2018-02-19T13:27:03.643Z,0.43
2018-02-19T13:28:04.931Z,0.41
2018-02-19T13:29:08.215Z,0.41
2018-02-19T13:30:06.202Z,0.38
2018-02-19T13:31:08.096Z,0.43
2018-02-19T13:32:09.373Z,0.43
2018-02-19T13:33:09.182Z,0.37
2018-02-19T13:34:11.225Z,0.35
2018-02-19T13:35:11.318Z,0.43